New York, New York
Current Conditions -  °F | °C
As of 1:51 PM on Tuesday 27 Jan 2015 (Local Time) from KNYC Reporting Station
Broken Clouds Broken Clouds  
Wind Chill: -6°   Ceiling: 10000
Heat Index: -2°   Visibility: 10mi
Dew Point: -9°   Wind: 7mph
Humidity: 58%   Direction: NA
Pressure: 29.67"   Gusts: 21mph
Location:  40.71°N, 74.01°W
Report Text: KNYC 271851Z AUTO VRB06G18KT 10SM BKN100 M02/M09 A2967 RMK AO2 SLP040 T10221094 $
Loading
Personal Weather Stations






























Interactive Weather Map New forecast layout! Learn more

10-Day Weather Forecast

Advertisements
Track Severe Weather on mobile